M I D A S
Marine Information and Data Acquisition System
Tripno 879 of the Zeeleeuw from 2005-04-07 07:15:14 to 2005-04-07 10:26:14
Back to CruiseResearch ActivitiesStationsMapUnderway DataData graphs

EquipmentUnitsComment
TimeDGPSUTC
LatitudeDGPSDM.mWGS84
LongitudeDGPSDM.mWGS84
HeadingGyrodeg 
SOGDGPSknotsSpeed over ground
COGDGPSdegCourse over ground
DepthEcho soundermeters200 kHz
Missing or incorrect values are displayed as -999
Navigation data collected by the RV Zeeleeuw from 2005-04-07 07:18:36 to 2005-04-07 10:36:32
Time Latitude Longitude Heading SOG COG Depth
2005-04-07 07:19:42 51°13.615 2°56.028 112.5 3.6 294 -999
2005-04-07 07:20:42 51°13.619 2°56.025 122.8 0.5 324 -999
2005-04-07 07:21:42 51°13.646 2°55.954 124.5 4.3 302 -999
2005-04-07 07:22:42 51°13.684 2°55.842 112.5 5 298 -999
2005-04-07 07:23:42 51°13.696 2°55.74 81.1 4.1 276 -999
2005-04-07 07:24:42 51°13.691 2°55.729 32.3 0.8 226 -999
2005-04-07 07:25:41 51°13.742 2°55.697 334.5 5.4 331 10
2005-04-07 07:26:40 51°13.836 2°55.622 338.2 7.1 335 9.8
2005-04-07 07:27:42 51°13.952 2°55.539 338.9 7.5 335 9.6
2005-04-07 07:28:41 51°14.065 2°55.459 340.3 7.4 336 9.3
2005-04-07 07:29:41 51°14.187 2°55.36 333.4 8.9 329 11
2005-04-07 07:30:41 51°14.297 2°55.196 313.6 9.1 311 10
2005-04-07 07:31:42 51°14.418 2°55.02 329.4 10.4 328 10.1
2005-04-07 07:32:42 51°14.594 2°54.914 346.9 11.6 341 9.6
2005-04-07 07:33:42 51°14.779 2°54.829 355 11.6 350 8.8
2005-04-07 07:34:41 51°14.968 2°54.789 358.4 11.5 352 9
2005-04-07 07:35:42 51°15.16 2°54.782 5.5 11.4 3 7.9
2005-04-07 07:36:42 51°15.347 2°54.826 15.9 11.4 12 8.7
2005-04-07 07:37:41 51°15.53 2°54.904 22.7 11.5 14 9.1
2005-04-07 07:38:42 51°15.69 2°55.058 40 10.9 44 9.4
2005-04-07 07:39:42 51°15.814 2°55.273 54.4 11.3 54 9.3
2005-04-07 07:40:40 51°15.932 2°55.518 61.2 12.5 66 9.3
2005-04-07 07:41:40 51°16.04 2°55.809 63 12.7 61 9.4
2005-04-07 07:42:41 51°16.155 2°56.117 59.8 13.3 55 9.3
2005-04-07 07:43:42 51°16.271 2°56.406 61.7 12.7 57 9.5
2005-04-07 07:44:41 51°16.379 2°56.686 63.8 12.7 64 9.6
2005-04-07 07:45:42 51°16.487 2°56.987 66.4 12.7 63 9.5
2005-04-07 07:46:42 51°16.594 2°57.291 62.9 13.5 59 9.4
2005-04-07 07:47:41 51°16.697 2°57.593 63.6 12.8 61 9.3
2005-04-07 07:48:42 51°16.805 2°57.894 62.7 12.9 60 9.4
2005-04-07 07:49:41 51°16.912 2°58.184 61.9 12.4 59 9.4
2005-04-07 07:50:40 51°17.007 2°58.479 69.2 12.9 65 9.3
2005-04-07 07:51:42 51°17.097 2°58.808 69.3 13.2 68 9.3
2005-04-07 07:52:41 51°17.191 2°59.121 64.2 13.1 62 9.3
2005-04-07 07:53:41 51°17.297 2°59.423 64.7 13.2 59 9.2
2005-04-07 07:54:41 51°17.425 2°59.701 51.9 12.8 51 9.3
2005-04-07 07:55:42 51°17.573 2°59.962 52.2 13.7 49 9.3
2005-04-07 07:56:42 51°17.714 3°0.22 55 12.6 52 8.6
2005-04-07 07:57:40 51°17.836 3°0.45 44.5 9.6 47 8.9
2005-04-07 07:58:41 51°17.891 3°0.64 79.1 6.8 76 8.9
2005-04-07 07:59:41 51°17.878 3°0.72 133.7 1.9 113 9
2005-04-07 08:00:41 51°17.857 3°0.757 155.2 2.2 137 8.7
2005-04-07 08:01:41 51°17.827 3°0.789 172 2.3 149 9.6
2005-04-07 08:02:42 51°17.79 3°0.807 187.8 2.5 149 8.7
2005-04-07 08:03:41 51°17.757 3°0.811 206.4 2.2 176 9.8
2005-04-07 08:04:42 51°17.728 3°0.792 231.9 1.6 217 9.8
2005-04-07 08:05:42 51°17.717 3°0.766 263.8 1 269 9.6
2005-04-07 08:06:42 51°17.74 3°0.752 329.6 1.8 350 9.2
2005-04-07 08:07:42 51°17.763 3°0.755 327.8 1.1 19 9.4
2005-04-07 08:08:41 51°17.779 3°0.768 331.5 0.8 29 9.4
2005-04-07 08:09:42 51°17.792 3°0.785 331.9 1.2 39 9.6
2005-04-07 08:10:42 51°17.802 3°0.805 331.6 0.9 59 9.8
2005-04-07 08:11:42 51°17.81 3°0.831 340.8 1.4 65 9.5
2005-04-07 08:12:42 51°17.816 3°0.861 345 1.1 75 10.1
2005-04-07 08:13:42 51°17.821 3°0.89 348.6 1.2 74 9.8
2005-04-07 08:14:41 51°17.823 3°0.919 353.1 0.9 75 10.4
2005-04-07 08:15:41 51°17.827 3°0.948 349.2 1.2 80 9.9
2005-04-07 08:16:42 51°17.832 3°0.977 351.6 1.6 72 9.7
2005-04-07 08:17:42 51°17.836 3°1.004 350.2 0.9 75 10
2005-04-07 08:18:42 51°17.843 3°1.031 344.9 1.1 67 9.1
2005-04-07 08:19:41 51°17.85 3°1.057 343.7 1.5 65 10
2005-04-07 08:20:42 51°17.857 3°1.082 343 1 74 9.3
2005-04-07 08:21:41 51°17.863 3°1.108 341.9 1.3 67 9.5
2005-04-07 08:22:42 51°17.87 3°1.135 343.2 1.1 70 9.2
2005-04-07 08:23:42 51°17.877 3°1.161 346.2 1.2 68 9.8
2005-04-07 08:24:42 51°17.885 3°1.191 346.4 1.4 66 9.9
2005-04-07 08:25:42 51°17.894 3°1.219 344.2 1.5 58 9.8
2005-04-07 08:26:41 51°17.904 3°1.25 344 1.2 59 9.9
2005-04-07 08:27:42 51°17.916 3°1.279 343.3 1.2 55 9.6
2005-04-07 08:28:42 51°17.927 3°1.308 344 1 56 9.4
2005-04-07 08:29:42 51°17.938 3°1.337 341.3 1.6 62 9.7
2005-04-07 08:30:42 51°17.949 3°1.37 340.5 1.3 70 9
2005-04-07 08:31:42 51°17.959 3°1.405 343.8 1.4 67 9.9
2005-04-07 08:32:42 51°17.968 3°1.44 346.5 1.6 63 9.9
2005-04-07 08:33:41 51°17.998 3°1.467 354.3 3.4 2 9.4
2005-04-07 08:34:41 51°18.078 3°1.491 12.4 5.2 24 9.8
2005-04-07 08:35:42 51°18.153 3°1.58 38.3 5.8 37 10.2
2005-04-07 08:36:42 51°18.209 3°1.688 60.9 4.9 57 10.1
2005-04-07 08:37:41 51°18.238 3°1.805 78.3 4.8 68 9.5
2005-04-07 08:38:41 51°18.267 3°1.914 64.5 4.5 59 9.6
2005-04-07 08:39:41 51°18.288 3°2.03 86.5 4.6 79 9.7
2005-04-07 08:40:42 51°18.308 3°2.153 81.2 4.8 75 9.7
2005-04-07 08:41:41 51°18.335 3°2.262 74.1 4.1 76 9.7
2005-04-07 08:42:41 51°18.364 3°2.355 60.7 3.9 58 9.7
2005-04-07 08:43:42 51°18.401 3°2.437 47.7 3.6 49 9.5
2005-04-07 08:44:40 51°18.44 3°2.505 37.5 3.6 46 10
2005-04-07 08:45:42 51°18.487 3°2.566 29.7 3.6 44 9.4
2005-04-07 08:46:41 51°18.532 3°2.622 25.2 3.6 44 9.2
2005-04-07 08:47:42 51°18.579 3°2.677 27.3 3.6 33 8.9
2005-04-07 08:48:41 51°18.625 3°2.731 26.4 3.5 33 9.3
2005-04-07 08:49:42 51°18.672 3°2.785 24.5 3.5 36 9.3
2005-04-07 08:50:42 51°18.719 3°2.839 27.8 3.5 33 8.7
2005-04-07 08:51:41 51°18.764 3°2.902 35.8 3.6 40 8.6
2005-04-07 08:52:42 51°18.806 3°2.978 43.4 3.9 43 8.6
2005-04-07 08:53:41 51°18.848 3°3.058 44.5 4.1 53 9
2005-04-07 08:54:41 51°18.892 3°3.144 44.4 4.2 56 9.2
2005-04-07 08:55:41 51°18.939 3°3.219 31.9 4.2 51 9.2
2005-04-07 08:56:42 51°18.989 3°3.281 21.7 3.5 29 9.1
2005-04-07 08:57:41 51°19.037 3°3.332 17.9 3.5 32 9.4
2005-04-07 08:58:42 51°19.084 3°3.385 22.9 3.4 33 9.6
2005-04-07 08:59:42 51°19.13 3°3.454 34.4 4.1 38 8.8
2005-04-07 09:00:41 51°19.175 3°3.56 69.8 5.1 64 9.7
2005-04-07 09:01:42 51°19.19 3°3.699 89.1 5.4 83 9.5
2005-04-07 09:02:41 51°19.202 3°3.842 90.1 5.5 88 9.2
2005-04-07 09:03:42 51°19.186 3°3.974 126.4 4.6 108 9.5
2005-04-07 09:04:42 51°19.164 3°4.063 142.4 3.5 112 9.3
2005-04-07 09:05:41 51°19.135 3°4.121 175.5 2.8 130 9.2
2005-04-07 09:06:42 51°19.098 3°4.147 209.7 3.1 174 9.6
2005-04-07 09:07:42 51°19.062 3°4.106 241.7 2.9 229 9.9
2005-04-07 09:08:42 51°19.027 3°4.048 236.2 3.1 225 9.6
2005-04-07 09:09:42 51°18.994 3°3.989 240.9 2.7 228 9.8
2005-04-07 09:10:42 51°18.957 3°3.95 230.6 2.6 203 10
2005-04-07 09:11:42 51°18.92 3°3.912 232.2 2.2 215 9.6
2005-04-07 09:12:42 51°18.884 3°3.879 232.9 2.8 206 10.3
2005-04-07 09:13:42 51°18.849 3°3.846 233.7 2.7 220 10.6
2005-04-07 09:14:42 51°18.814 3°3.805 234.6 2.7 214 9.8
2005-04-07 09:15:42 51°18.781 3°3.766 236 2.5 216 10.5
2005-04-07 09:16:41 51°18.75 3°3.719 239.9 2.7 229 10.3
2005-04-07 09:17:42 51°18.718 3°3.664 238.2 2.8 231 10.1
2005-04-07 09:18:42 51°18.689 3°3.626 234.5 2.2 212 10.5
2005-04-07 09:19:42 51°18.66 3°3.587 239.6 2.1 228 10.2
2005-04-07 09:20:42 51°18.635 3°3.544 239.5 2.5 221 10.6
2005-04-07 09:21:42 51°18.608 3°3.503 239 2.2 223 10.6
2005-04-07 09:22:42 51°18.584 3°3.469 237.3 1.7 214 10.1
2005-04-07 09:23:42 51°18.555 3°3.437 237.7 2.6 225 10.6
2005-04-07 09:24:42 51°18.523 3°3.378 240.2 2.7 226 10.6
2005-04-07 09:25:42 51°18.493 3°3.322 240.9 2.6 227 10.2
2005-04-07 09:26:42 51°18.464 3°3.277 240.5 2.5 230 11
2005-04-07 09:27:42 51°18.441 3°3.227 245.3 2.6 240 10.9
2005-04-07 09:28:42 51°18.414 3°3.162 242.6 3.3 235 11.1
2005-04-07 09:29:42 51°18.39 3°3.124 240.5 2 225 10.6
2005-04-07 09:30:42 51°18.358 3°3.081 237 2.7 220 10.9
2005-04-07 09:31:42 51°18.331 3°3.051 234.9 1.9 212 11.2
2005-04-07 09:32:42 51°18.307 3°3.02 240.8 1.5 230 10.8
2005-04-07 09:33:42 51°18.291 3°2.981 249.4 1.1 251 10.6
2005-04-07 09:34:41 51°18.297 3°3.01 242.2 2.2 84 10.6
2005-04-07 09:35:42 51°18.317 3°3.082 217.2 3.2 60 -999
2005-04-07 09:36:42 51°18.34 3°3.155 189.8 3.5 74 11
2005-04-07 09:37:42 51°18.331 3°3.217 201.6 1.7 121 9.9
2005-04-07 09:38:42 51°18.317 3°3.255 228.6 1.1 124 11.1
2005-04-07 09:39:42 51°18.312 3°3.261 245.9 0.3 228 10.6
2005-04-07 09:40:42 51°18.293 3°3.232 242 2.7 230 10.8
2005-04-07 09:41:42 51°18.252 3°3.128 244.1 6.5 238 10.8
2005-04-07 09:42:42 51°18.196 3°2.965 244.7 7 241 10.4
2005-04-07 09:43:41 51°18.131 3°2.768 245.3 9.2 242 11.1
2005-04-07 09:44:42 51°18.06 3°2.544 247.6 9.7 243 11.3
2005-04-07 09:45:42 51°17.996 3°2.314 249.5 9.8 244 11.4
2005-04-07 09:46:42 51°17.931 3°2.085 249.7 9.4 246 11.4
2005-04-07 09:47:42 51°17.871 3°1.874 248.2 8.3 243 -999
2005-04-07 09:48:42 51°17.81 3°1.656 248.9 9 244 11.7
2005-04-07 09:49:41 51°17.749 3°1.44 249.1 8.4 246 11.5
2005-04-07 09:50:42 51°17.692 3°1.24 248.6 7.8 245 11.4
2005-04-07 09:51:42 51°17.634 3°1.025 249.5 9.2 248 12
2005-04-07 09:52:42 51°17.571 3°0.812 249.8 8.4 246 -999
2005-04-07 09:53:42 51°17.508 3°0.58 249.7 10 247 11.1
2005-04-07 09:54:42 51°17.443 3°0.349 248.8 9.6 247 11.6
2005-04-07 09:55:42 51°17.379 3°0.117 250.4 9.8 247 12.3
2005-04-07 09:56:42 51°17.316 2°59.884 249.6 9.6 247 12
2005-04-07 09:57:42 51°17.251 2°59.653 249.3 9.5 246 11.5
2005-04-07 09:58:42 51°17.186 2°59.43 249 9.8 245 12.3
2005-04-07 09:59:42 51°17.117 2°59.188 249.2 10 245 12
2005-04-07 10:00:42 51°17.05 2°58.962 246.8 9.8 240 12.4
2005-04-07 10:01:41 51°16.968 2°58.749 244.6 9.4 240 12.3
2005-04-07 10:02:41 51°16.887 2°58.525 245.5 9.7 240 11.7
2005-04-07 10:03:42 51°16.805 2°58.297 245.6 10.2 241 12.1
2005-04-07 10:04:41 51°16.724 2°58.066 245.6 9.9 240 12.1
2005-04-07 10:05:42 51°16.642 2°57.829 245.7 10.2 243 12.7
2005-04-07 10:06:40 51°16.563 2°57.608 244.7 10.3 240 12.2
2005-04-07 10:07:42 51°16.478 2°57.363 245.3 10.2 241 12.1
2005-04-07 10:08:42 51°16.396 2°57.125 244.8 10.3 240 12.5
2005-04-07 10:09:42 51°16.313 2°56.883 245.4 10.1 242 11.9
2005-04-07 10:10:42 51°16.229 2°56.642 245.3 10.5 241 12.7
2005-04-07 10:11:42 51°16.147 2°56.401 245.5 10 242 12.1
2005-04-07 10:12:42 51°16.071 2°56.181 244.1 9.7 238 12.5
2005-04-07 10:13:42 51°15.975 2°55.982 236 9.3 231 12.4
2005-04-07 10:14:42 51°15.861 2°55.789 232.2 10.1 227 12.4
2005-04-07 10:15:42 51°15.744 2°55.605 230.7 9.7 224 12
2005-04-07 10:16:42 51°15.622 2°55.434 228.8 9.6 221 11.7
2005-04-07 10:17:42 51°15.498 2°55.264 228.1 9.6 223 11.8
2005-04-07 10:18:42 51°15.373 2°55.098 227.2 9.9 219 11.7
2005-04-07 10:19:42 51°15.248 2°54.934 224.8 9.5 219 11.1
2005-04-07 10:20:42 51°15.117 2°54.786 221.2 9.7 205 11.4
2005-04-07 10:21:42 51°14.944 2°54.739 198.1 10.8 187 12.5
2005-04-07 10:22:40 51°14.788 2°54.763 187.1 8.7 169 12.7
2005-04-07 10:23:41 51°14.672 2°54.841 180.3 7.9 157 12.4
2005-04-07 10:24:41 51°14.524 2°54.888 186.6 9.8 171 -999
2005-04-07 10:25:42 51°14.378 2°55.052 142.4 12.2 127 13.7
2005-04-07 10:26:42 51°14.257 2°55.276 134.5 9.5 132 14.1
2005-04-07 10:27:40 51°14.157 2°55.393 156.9 6.7 150 14
2005-04-07 10:28:42 51°14.06 2°55.464 159.3 5.8 154 12.6
2005-04-07 10:29:42 51°13.986 2°55.524 159.6 4.8 153 13
2005-04-07 10:30:41 51°13.911 2°55.581 161.7 5.5 158 13.3
2005-04-07 10:31:42 51°13.818 2°55.64 161.1 6.2 156 13.3
2005-04-07 10:32:42 51°13.74 2°55.726 138.8 5.4 135 12.7
2005-04-07 10:33:42 51°13.69 2°55.839 121.8 5.1 117 12.6
2005-04-07 10:34:42 51°13.661 2°55.945 113.1 4.1 110 10.2
2005-04-07 10:35:42 51°13.66 2°55.965 127.9 0.6 355 11